Time;durP1;ratioP1;P1;durP2;ratioP2;P2;SDS_P1;SDS_P2;PMS_P1;PMS_P2;Temp;Humidity;BMP_temperature;BMP_pressure;BME280_temperature;BME280_humidity;BME280_pressure;Samples;Min_cycle;Max_cycle;Signal;HPM_P1;HPM_P2
2021/12/08 00:01:31;;;;;;;6.00;3.70;;;;;;;2.69;76.08;97260.19;5022515;27;103739;-66
2021/12/08 00:04:00;;;;;;;3.93;3.20;;;;;;;2.73;77.71;97252.06;5020881;28;103776;-67
2021/12/08 00:06:29;;;;;;;5.53;3.27;;;;;;;2.85;76.89;97246.06;5025989;27;102688;-66
2021/12/08 00:09:17;;;;;;;4.20;3.10;;;;;;;2.86;76.85;97252.94;5024048;27;104425;-66
2021/12/08 00:14:30;;;;;;;4.07;3.03;;;;;;;2.91;75.92;97247.47;5022809;27;103391;-66
2021/12/08 00:17:02;;;;;;;6.00;3.53;;;;;;;2.89;74.94;97237.09;5024903;27;102745;-66
2021/12/08 00:19:30;;;;;;;3.90;2.73;;;;;;;2.98;76.03;97237.44;5023728;27;103240;-66
2021/12/08 00:22:01;;;;;;;3.87;2.70;;;;;;;3.02;76.15;97236.31;5005776;28;104454;-67
2021/12/08 00:24:29;;;;;;;5.60;3.30;;;;;;;2.99;75.86;97239.97;5024675;27;102656;-67
2021/12/08 00:26:57;;;;;;;6.20;3.20;;;;;;;3.09;76.59;97227.16;5025523;27;102610;-67
2021/12/08 00:29:25;;;;;;;3.50;2.80;;;;;;;3.08;76.84;97230.72;5004515;28;103245;-66
2021/12/08 00:31:53;;;;;;;3.70;2.80;;;;;;;3.16;77.27;97225.81;5020596;28;103241;-66
2021/12/08 00:34:23;;;;;;;6.07;2.67;;;;;;;3.10;77.09;97229.66;5022768;27;102607;-66
2021/12/08 00:36:55;;;;;;;6.60;3.50;;;;;;;3.15;77.12;97231.97;5005143;27;102688;-66
2021/12/08 00:39:24;;;;;;;3.60;2.97;;;;;;;3.13;77.53;97233.84;5022894;28;104329;-66
2021/12/08 00:41:52;;;;;;;5.07;3.33;;;;;;;3.12;77.01;97237.38;5022349;27;103202;-66
2021/12/08 00:44:20;;;;;;;3.90;3.10;;;;;;;3.08;77.02;97230.72;5005930;28;102625;-66
2021/12/08 00:46:48;;;;;;;5.47;3.20;;;;;;;3.10;76.34;97218.38;5006210;28;103848;-66
2021/12/08 00:49:17;;;;;;;4.13;3.20;;;;;;;3.05;77.11;97221.31;5026026;27;104390;-66
2021/12/08 00:51:46;;;;;;;5.73;3.20;;;;;;;2.99;76.95;97211.28;5022072;28;103235;-66
2021/12/08 00:54:14;;;;;;;4.63;2.50;;;;;;;2.99;75.93;97205.22;5022395;27;102839;-66
2021/12/08 00:56:43;;;;;;;7.67;3.33;;;;;;;2.99;77.52;97200.00;5023809;27;103778;-66
2021/12/08 00:59:11;;;;;;;4.10;2.80;;;;;;;3.10;78.07;97200.97;5023618;28;103321;-69
2021/12/08 01:01:39;;;;;;;5.07;2.77;;;;;;;2.99;78.65;97194.78;5026016;27;103642;-66
2021/12/08 01:04:10;;;;;;;4.73;3.17;;;;;;;3.03;79.04;97201.47;5022904;28;102606;-66
2021/12/08 01:06:38;;;;;;;7.87;3.47;;;;;;;3.10;77.92;97208.78;5005127;28;102736;-66
2021/12/08 01:09:07;;;;;;;5.53;2.87;;;;;;;3.14;79.30;97214.66;5022300;28;103195;-66
2021/12/08 01:11:35;;;;;;;5.10;3.47;;;;;;;2.91;78.62;97224.81;5004313;28;103197;-66
2021/12/08 01:14:04;;;;;;;3.63;2.37;;;;;;;2.99;79.48;97226.91;5022929;27;102667;-66
2021/12/08 01:16:32;;;;;;;2.77;2.03;;;;;;;2.99;78.09;97223.47;5024261;27;103312;-67
2021/12/08 01:19:00;;;;;;;3.47;1.80;;;;;;;2.84;78.72;97213.09;5004549;28;103442;-68
2021/12/08 01:21:31;;;;;;;2.17;1.97;;;;;;;2.83;79.38;97211.44;5023219;27;103202;-69
2021/12/08 01:23:59;;;;;;;3.63;1.60;;;;;;;2.84;80.43;97223.53;5006195;28;102633;-69
2021/12/08 01:26:29;;;;;;;3.47;1.80;;;;;;;2.94;81.01;97229.00;5024284;27;102786;-70
2021/12/08 01:28:57;;;;;;;2.90;1.67;;;;;;;2.93;81.36;97240.34;5025646;27;104024;-70
2021/12/08 01:31:26;;;;;;;1.73;1.47;;;;;;;3.03;82.01;97238.00;5007132;28;103259;-69
2021/12/08 01:33:54;;;;;;;2.50;1.73;;;;;;;3.06;81.81;97237.81;5021742;27;102653;-69
2021/12/08 01:36:22;;;;;;;2.27;1.70;;;;;;;3.10;82.82;97244.47;5023674;27;104127;-69
2021/12/08 01:38:50;;;;;;;3.87;1.90;;;;;;;3.03;84.74;97238.00;5004947;28;103077;-69
2021/12/08 01:41:18;;;;;;;6.30;2.10;;;;;;;2.75;87.81;97234.53;5022002;27;103212;-68
2021/12/08 01:46:31;;;;;;;2.60;1.87;;;;;;;2.82;90.10;97212.38;5022359;27;103576;-69
2021/12/08 01:49:03;;;;;;;2.53;2.00;;;;;;;2.87;90.76;97207.69;5022060;28;102992;-68
2021/12/08 01:51:32;;;;;;;3.57;2.20;;;;;;;2.84;90.34;97197.44;5023635;27;103223;-68
2021/12/08 01:54:02;;;;;;;2.83;2.00;;;;;;;2.69;90.84;97201.06;5022880;27;103876;-68
2021/12/08 01:56:31;;;;;;;3.83;1.83;;;;;;;2.75;89.63;97194.63;5022316;27;103735;-68
2021/12/08 01:59:03;;;;;;;4.57;1.70;;;;;;;2.80;88.70;97200.38;5022130;27;102987;-68
2021/12/08 02:01:33;;;;;;;3.87;1.90;;;;;;;2.64;88.50;97200.50;5011979;27;102640;-68
2021/12/08 02:04:04;;;;;;;2.77;1.90;;;;;;;2.55;88.97;97203.72;5023031;27;102632;-68
2021/12/08 02:06:34;;;;;;;3.13;2.20;;;;;;;2.59;89.23;97205.16;5022293;27;104164;-68
2021/12/08 02:09:05;;;;;;;3.47;2.03;;;;;;;2.69;90.08;97208.88;5022321;27;103407;-67
2021/12/08 02:11:38;;;;;;;2.50;1.77;;;;;;;2.67;91.23;97205.50;5004527;27;103365;-67
2021/12/08 02:14:08;;;;;;;1.90;1.70;;;;;;;2.67;91.52;97207.28;5024314;27;102718;-68
2021/12/08 02:16:36;;;;;;;2.97;1.77;;;;;;;2.74;91.23;97204.19;5020837;27;102831;-68
2021/12/08 02:19:05;;;;;;;3.07;1.73;;;;;;;2.64;90.92;97208.31;5017594;27;103261;-68
2021/12/08 02:21:38;;;;;;;2.53;1.70;;;;;;;2.73;91.25;97207.72;5020955;28;103177;-68
2021/12/08 02:24:10;;;;;;;2.70;1.73;;;;;;;2.72;90.22;97206.06;5021312;28;104995;-68
2021/12/08 02:26:40;;;;;;;2.50;1.93;;;;;;;2.66;91.43;97201.25;5023613;28;102670;-68
2021/12/08 02:29:29;;;;;;;3.60;2.50;;;;;;;2.55;91.75;97205.47;5022919;27;103240;-68
2021/12/08 02:32:04;;;;;;;3.33;2.40;;;;;;;2.57;92.57;97204.44;5005630;28;104066;-69
2021/12/08 02:48:28;;;;;;;4.60;2.80;;;;;;;2.68;93.86;97201.97;5021658;27;104473;-69
2021/12/08 02:50:57;;;;;;;3.87;2.60;;;;;;;2.44;94.56;97207.94;5017878;27;103218;-69
2021/12/08 02:53:31;;;;;;;4.57;2.73;;;;;;;2.48;94.07;97205.03;5021491;27;103173;-69
2021/12/08 02:56:02;;;;;;;3.87;3.00;;;;;;;2.71;94.84;97206.16;5022464;27;102567;-69
2021/12/08 02:58:30;;;;;;;3.43;2.60;;;;;;;2.52;95.20;97206.50;5020955;27;102696;-69
2021/12/08 03:01:03;;;;;;;5.00;2.80;;;;;;;2.55;96.40;97185.47;5015897;27;103309;-69
2021/12/08 03:03:31;;;;;;;4.50;3.37;;;;;;;2.46;96.64;97193.03;5027461;27;103166;-69
2021/12/08 03:06:00;;;;;;;4.17;2.90;;;;;;;2.65;96.26;97180.47;5020835;27;102628;-68
2021/12/08 03:08:30;;;;;;;3.40;2.60;;;;;;;2.79;96.06;97178.66;5026040;27;102691;-68
2021/12/08 03:10:58;;;;;;;4.67;3.40;;;;;;;2.33;97.40;97175.53;5022791;27;103795;-68
2021/12/08 03:13:30;;;;;;;4.63;3.37;;;;;;;1.97;99.92;97182.22;5022884;27;102966;-68
2021/12/08 03:15:59;;;;;;;3.80;3.23;;;;;;;1.90;100.00;97186.16;5025069;27;103157;-69
2021/12/08 03:18:33;;;;;;;5.70;3.20;;;;;;;1.85;100.00;97188.19;5025407;27;104507;-68
2021/12/08 03:21:04;;;;;;;3.50;3.20;;;;;;;1.95;100.00;97189.28;5024920;27;103312;-68
2021/12/08 03:23:46;;;;;;;4.57;3.40;;;;;;;1.90;100.00;97191.34;5020969;27;103222;-68
2021/12/08 03:26:15;;;;;;;5.53;3.47;;;;;;;2.07;100.00;97189.38;5022034;27;102757;-68
2021/12/08 03:28:56;;;;;;;6.20;3.10;;;;;;;2.22;100.00;97185.81;5026623;27;103702;-68
2021/12/08 03:31:30;;;;;;;4.83;3.10;;;;;;;2.32;100.00;97186.06;5008359;27;104141;-68
2021/12/08 03:33:58;;;;;;;3.97;2.70;;;;;;;2.48;100.00;97189.38;5008933;27;103255;-68
2021/12/08 03:36:26;;;;;;;3.73;2.90;;;;;;;2.57;100.00;97188.81;5021815;27;102947;-69
2021/12/08 03:38:56;;;;;;;3.73;3.00;;;;;;;2.53;99.37;97182.09;5027314;27;103032;-68
2021/12/08 03:41:31;;;;;;;5.83;2.87;;;;;;;2.63;99.52;97187.56;5025635;27;103271;-69
2021/12/08 03:43:59;;;;;;;3.60;2.97;;;;;;;2.68;99.28;97183.72;5007620;27;102976;-69
2021/12/08 03:46:30;;;;;;;5.43;2.87;;;;;;;2.69;98.72;97177.59;5023606;27;102661;-69
2021/12/08 03:49:01;;;;;;;4.17;3.20;;;;;;;2.66;98.91;97171.72;5023863;27;102889;-68
2021/12/08 03:51:29;;;;;;;2.83;2.53;;;;;;;2.74;99.11;97180.72;5018702;27;103291;-68
2021/12/08 03:53:59;;;;;;;4.83;3.37;;;;;;;2.77;99.23;97170.09;5021542;27;103127;-68
2021/12/08 03:56:27;;;;;;;5.33;2.60;;;;;;;2.85;98.54;97173.03;5023497;27;102667;-68
2021/12/08 03:58:55;;;;;;;2.73;2.20;;;;;;;2.96;98.31;97174.09;5004296;27;102707;-68
2021/12/08 04:01:23;;;;;;;3.17;2.80;;;;;;;2.90;97.94;97175.34;5021149;27;103265;-68
2021/12/08 04:03:51;;;;;;;3.83;2.93;;;;;;;2.84;98.85;97171.34;5024268;27;103361;-68
2021/12/08 04:06:31;;;;;;;3.60;2.70;;;;;;;2.91;99.14;97167.44;5026550;27;102655;-68
2021/12/08 04:09:05;;;;;;;4.07;3.63;;;;;;;2.69;100.00;97169.78;5027061;27;102638;-69
2021/12/08 04:11:36;;;;;;;3.07;2.77;;;;;;;2.85;100.00;97172.19;5004526;27;103294;-68
2021/12/08 04:14:08;;;;;;;5.03;3.20;;;;;;;2.85;100.00;97173.03;5024770;27;103202;-68
2021/12/08 04:16:39;;;;;;;4.87;3.87;;;;;;;2.88;100.00;97170.25;5018600;27;102639;-68
2021/12/08 04:19:08;;;;;;;4.23;3.17;;;;;;;2.89;100.00;97174.50;5006917;27;102725;-68
2021/12/08 04:21:38;;;;;;;6.40;3.03;;;;;;;2.86;100.00;97172.09;5021776;27;103988;-68
2021/12/08 04:24:10;;;;;;;4.37;3.10;;;;;;;2.91;100.00;97188.31;5024460;27;103215;-69
2021/12/08 04:26:44;;;;;;;5.60;3.53;;;;;;;2.84;100.00;97181.78;5006595;28;103681;-68
2021/12/08 04:29:14;;;;;;;4.97;2.97;;;;;;;2.91;100.00;97177.88;5006846;27;104125;-68
2021/12/08 04:31:43;;;;;;;5.43;4.27;;;;;;;2.93;100.00;97181.19;5026052;27;103600;-68
2021/12/08 04:34:18;;;;;;;4.60;3.83;;;;;;;2.97;100.00;97181.00;5006055;27;103224;-68
2021/12/08 04:36:51;;;;;;;5.77;4.53;;;;;;;2.98;100.00;97185.25;5023434;27;103310;-68
2021/12/08 04:39:31;;;;;;;6.20;4.07;;;;;;;3.00;100.00;97186.88;5026290;27;102799;-68
2021/12/08 04:42:06;;;;;;;5.43;4.20;;;;;;;3.01;100.00;97187.66;5024217;27;103230;-68
2021/12/08 04:44:40;;;;;;;6.07;4.20;;;;;;;3.02;100.00;97179.75;5026803;27;103198;-68
2021/12/08 04:53:11;;;;;;;5.37;4.20;;;;;;;3.12;100.00;97195.63;5023178;27;103399;-68
2021/12/08 05:01:27;;;;;;;6.90;5.13;;;;;;;3.14;100.00;97173.75;5009937;28;102751;-70
2021/12/08 05:04:32;;;;;;;5.53;4.00;;;;;;;3.11;100.00;97158.28;5019709;27;104049;-70
2021/12/08 05:07:16;;;;;;;6.10;4.93;;;;;;;3.16;100.00;97160.56;5017546;27;103219;-70
2021/12/08 05:09:47;;;;;;;7.10;4.67;;;;;;;3.20;100.00;97167.28;4999204;28;102866;-71
2021/12/08 05:12:21;;;;;;;6.47;5.20;;;;;;;3.24;100.00;97166.97;5020361;27;102697;-70
2021/12/08 05:14:53;;;;;;;7.87;4.67;;;;;;;3.28;100.00;97175.44;5014768;27;103483;-70
2021/12/08 05:17:26;;;;;;;6.60;4.63;;;;;;;3.34;100.00;97175.81;5021672;27;103200;-70
2021/12/08 05:19:58;;;;;;;5.83;5.10;;;;;;;3.37;100.00;97177.41;5024372;27;102677;-70
2021/12/08 05:22:31;;;;;;;5.10;4.23;;;;;;;3.44;100.00;97187.34;5001135;28;102709;-71
2021/12/08 05:25:02;;;;;;;5.60;4.40;;;;;;;3.45;100.00;97182.97;5021040;27;103933;-71
2021/12/08 05:27:39;;;;;;;5.80;5.20;;;;;;;3.48;100.00;97187.97;5015097;27;103243;-65
2021/12/08 05:30:12;;;;;;;5.90;4.13;;;;;;;3.50;100.00;97186.94;5015551;27;102690;-65
2021/12/08 05:32:40;;;;;;;4.50;3.97;;;;;;;3.59;100.00;97190.69;4998715;28;102711;-64
2021/12/08 05:35:14;;;;;;;4.27;3.87;;;;;;;3.59;100.00;97198.53;5004130;28;103277;-65
2021/12/08 05:37:42;;;;;;;5.50;4.33;;;;;;;3.57;100.00;97191.72;5002163;28;103499;-64
2021/12/08 05:40:16;;;;;;;4.90;4.07;;;;;;;3.59;100.00;97188.09;5003727;27;102665;-64
2021/12/08 05:42:47;;;;;;;4.20;3.63;;;;;;;3.64;100.00;97193.81;5022377;27;103177;-65
2021/12/08 05:45:18;;;;;;;5.50;4.13;;;;;;;3.69;100.00;97185.66;5022103;27;104337;-64
2021/12/08 05:47:49;;;;;;;7.70;6.10;;;;;;;3.68;100.00;97190.03;4999799;27;103197;-65
2021/12/08 05:50:22;;;;;;;5.63;4.37;;;;;;;3.74;100.00;97200.09;5005232;27;103235;-65
2021/12/08 05:52:52;;;;;;;9.57;4.90;;;;;;;3.58;100.00;97199.47;4990771;27;102768;-65
2021/12/08 05:55:22;;;;;;;6.33;4.63;;;;;;;3.68;100.00;97202.28;5016367;27;103423;-65
2021/12/08 05:57:51;;;;;;;4.83;4.33;;;;;;;3.70;100.00;97188.19;5018603;27;103204;-65
2021/12/08 06:00:25;;;;;;;7.53;5.17;;;;;;;3.49;100.00;97185.25;5006163;27;102681;-66
2021/12/08 06:02:54;;;;;;;7.37;5.70;;;;;;;3.43;100.00;97171.75;5013275;27;102813;-66
2021/12/08 06:05:27;;;;;;;8.83;5.43;;;;;;;3.26;100.00;97162.47;5018418;27;103278;-65
2021/12/08 06:07:56;;;;;;;4.63;3.97;;;;;;;3.51;100.00;97174.69;5020457;27;102965;-65
2021/12/08 06:10:29;;;;;;;5.70;4.97;;;;;;;3.50;100.00;97186.09;5006279;27;103109;-66
2021/12/08 06:13:01;;;;;;;6.53;4.77;;;;;;;3.58;100.00;97183.78;5017523;27;103279;-65
2021/12/08 06:15:29;;;;;;;8.87;5.17;;;;;;;3.63;100.00;97166.03;5013636;27;104136;-66
2021/12/08 06:17:58;;;;;;;8.37;5.50;;;;;;;3.61;100.00;97160.09;4995528;27;103351;-65
2021/12/08 06:20:27;;;;;;;8.53;6.60;;;;;;;3.61;100.00;97172.31;5019137;27;102785;-65
2021/12/08 06:22:57;;;;;;;8.70;5.80;;;;;;;3.65;100.00;97171.97;5018788;27;103970;-65
2021/12/08 06:25:26;;;;;;;7.00;5.20;;;;;;;3.71;100.00;97166.34;5018958;27;103478;-65
2021/12/08 06:27:55;;;;;;;9.20;6.60;;;;;;;3.73;100.00;97146.19;5017201;27;103176;-64
2021/12/08 06:30:27;;;;;;;10.17;7.13;;;;;;;3.58;100.00;97136.78;5018790;27;102729;-65
2021/12/08 06:32:56;;;;;;;8.73;6.50;;;;;;;3.63;100.00;97139.91;5020771;27;103818;-65
2021/12/08 06:35:31;;;;;;;10.13;6.67;;;;;;;3.68;100.00;97137.81;5022311;27;104358;-65
2021/12/08 06:37:59;;;;;;;9.87;7.77;;;;;;;3.67;100.00;97136.16;5007289;27;103106;-65
2021/12/08 06:40:33;;;;;;;9.53;7.63;;;;;;;3.61;100.00;97139.19;5026141;27;102980;-65
2021/12/08 06:43:05;;;;;;;8.57;6.27;;;;;;;3.69;100.00;97134.28;5006325;27;102695;-65
2021/12/08 06:45:36;;;;;;;8.00;7.03;;;;;;;3.75;100.00;97133.84;5022955;27;104597;-66
2021/12/08 06:48:08;;;;;;;9.97;6.87;;;;;;;3.80;100.00;97142.19;5020307;27;103292;-66
2021/12/08 06:50:43;;;;;;;12.63;7.33;;;;;;;3.78;100.00;97144.09;5001675;27;102834;-65
2021/12/08 06:53:11;;;;;;;11.73;7.90;;;;;;;3.76;100.00;97138.13;5003078;27;103147;-65
2021/12/08 06:55:46;;;;;;;9.33;7.57;;;;;;;3.90;100.00;97143.22;5020078;27;103292;-65
2021/12/08 06:58:19;;;;;;;9.40;6.07;;;;;;;3.92;100.00;97130.91;5005922;27;103277;-66
2021/12/08 07:01:01;;;;;;;9.70;6.50;;;;;;;3.90;100.00;97138.00;5006085;28;103032;-66
2021/12/08 07:03:37;;;;;;;8.97;5.83;;;;;;;3.91;100.00;97149.28;5020404;27;102575;-65
2021/12/08 07:06:12;;;;;;;10.83;6.73;;;;;;;3.93;100.00;97156.06;5022592;27;104045;-65
2021/12/08 07:08:46;;;;;;;7.03;6.33;;;;;;;3.90;100.00;97169.34;5022808;27;103257;-64
2021/12/08 07:11:17;;;;;;;7.60;5.47;;;;;;;3.97;100.00;97177.59;5003855;27;102657;-64
2021/12/08 07:13:46;;;;;;;9.53;7.13;;;;;;;3.99;100.00;97183.53;5005503;28;102757;-65
2021/12/08 07:16:36;;;;;;;7.70;5.47;;;;;;;4.05;100.00;97194.41;5021897;27;103386;-65
2021/12/08 07:19:12;;;;;;;8.87;6.00;;;;;;;3.99;100.00;97194.84;5022105;27;103202;-65
2021/12/08 07:21:44;;;;;;;9.57;6.50;;;;;;;4.02;100.00;97192.00;5019939;27;102612;-65
2021/12/08 07:24:17;;;;;;;6.13;4.93;;;;;;;4.09;100.00;97188.03;5022348;27;102653;-65
2021/12/08 07:26:47;;;;;;;8.67;6.67;;;;;;;4.10;100.00;97187.06;5002460;28;103403;-65
2021/12/08 07:29:21;;;;;;;7.37;6.57;;;;;;;4.18;100.00;97186.56;5022770;27;103231;-66
2021/12/08 07:31:56;;;;;;;9.70;6.77;;;;;;;4.02;100.00;97194.63;5019758;27;102710;-65
2021/12/08 07:34:26;;;;;;;8.43;7.63;;;;;;;3.97;100.00;97188.88;5019788;27;103903;-65
2021/12/08 07:36:59;;;;;;;9.03;7.50;;;;;;;3.89;100.00;97183.38;5024044;27;103381;-66
2021/12/08 07:39:30;;;;;;;9.53;6.80;;;;;;;4.05;100.00;97167.44;5024882;27;103249;-65
2021/12/08 07:42:02;;;;;;;6.37;5.23;;;;;;;4.17;100.00;97176.19;5024733;27;102650;-65
2021/12/08 07:44:30;;;;;;;5.73;4.70;;;;;;;4.21;100.00;97172.44;5023838;27;103982;-65
2021/12/08 07:47:07;;;;;;;8.23;6.80;;;;;;;4.19;100.00;97158.63;5023011;27;104073;-65
2021/12/08 07:49:40;;;;;;;7.90;5.70;;;;;;;4.15;100.00;97150.19;5024507;27;103192;-65
2021/12/08 07:52:14;;;;;;;4.93;4.43;;;;;;;4.28;100.00;97148.34;5026194;27;102632;-65
2021/12/08 07:54:43;;;;;;;7.03;6.33;;;;;;;4.24;100.00;97151.31;5020934;27;103858;-65
2021/12/08 07:57:14;;;;;;;6.93;5.40;;;;;;;4.25;100.00;97152.97;5003276;28;103498;-65
2021/12/08 07:59:46;;;;;;;9.47;6.60;;;;;;;4.19;100.00;97148.16;5023429;27;103171;-65
2021/12/08 08:02:17;;;;;;;6.93;5.63;;;;;;;4.22;100.00;97155.78;5006351;28;102786;-66
2021/12/08 08:04:48;;;;;;;8.07;5.20;;;;;;;4.20;100.00;97166.38;5004618;27;102702;-66
2021/12/08 08:07:19;;;;;;;6.70;5.83;;;;;;;4.25;100.00;97163.41;5020435;28;103421;-65
2021/12/08 08:09:57;;;;;;;6.83;5.00;;;;;;;4.25;100.00;97163.41;5014736;28;103191;-66
2021/12/08 08:12:28;;;;;;;7.90;7.00;;;;;;;4.24;100.00;97167.00;5021070;27;103001;-65
2021/12/08 08:15:00;;;;;;;11.83;7.80;;;;;;;4.17;100.00;97165.75;5021242;28;103444;-65
2021/12/08 08:17:36;;;;;;;8.60;6.97;;;;;;;4.22;100.00;97168.84;5018710;27;103276;-65
2021/12/08 08:20:10;;;;;;;10.27;7.97;;;;;;;4.19;100.00;97169.06;5002559;27;103381;-65
2021/12/08 08:22:38;;;;;;;8.93;7.03;;;;;;;4.20;100.00;97166.38;5025154;27;102941;-65
2021/12/08 08:25:13;;;;;;;10.93;7.50;;;;;;;4.26;100.00;97160.72;5024253;27;102602;-65
2021/12/08 08:27:42;;;;;;;8.07;7.27;;;;;;;4.35;100.00;97164.44;5005623;28;104069;-66
2021/12/08 08:30:17;;;;;;;9.60;7.27;;;;;;;4.36;100.00;97164.31;5004435;28;103194;-65
2021/12/08 08:32:52;;;;;;;12.27;8.87;;;;;;;4.39;100.00;97178.97;5004947;27;102769;-65
2021/12/08 08:35:26;;;;;;;9.50;7.00;;;;;;;4.41;100.00;97179.69;5004781;28;102736;-65
2021/12/08 08:37:55;;;;;;;8.37;6.80;;;;;;;4.44;100.00;97190.75;5004949;28;103389;-66
2021/12/08 08:40:30;;;;;;;8.93;5.90;;;;;;;4.51;100.00;97186.78;5022829;27;103360;-65
2021/12/08 08:42:59;;;;;;;9.93;8.20;;;;;;;4.50;100.00;97173.78;5024068;27;102610;-65
2021/12/08 08:45:34;;;;;;;7.13;6.43;;;;;;;4.50;100.00;97171.19;5023068;28;102715;-66
2021/12/08 08:48:09;;;;;;;8.83;6.53;;;;;;;4.42;100.00;97176.97;5023188;27;103947;-68
2021/12/08 08:50:46;;;;;;;7.80;6.90;;;;;;;4.44;100.00;97171.63;5023127;27;103186;-69
2021/12/08 08:53:17;;;;;;;7.13;6.17;;;;;;;4.55;100.00;97158.59;5022107;27;102630;-68
2021/12/08 08:55:52;;;;;;;9.67;8.13;;;;;;;4.54;100.00;97170.03;5023528;27;104769;-66
2021/12/08 08:58:24;;;;;;;10.23;8.40;;;;;;;4.55;100.00;97158.59;5024066;27;103558;-66
2021/12/08 09:00:58;;;;;;;6.80;6.10;;;;;;;4.59;100.00;97160.91;5026028;27;103177;-66
2021/12/08 09:03:34;;;;;;;6.80;5.90;;;;;;;4.57;100.00;97180.28;5023660;27;102571;-65
2021/12/08 09:06:07;;;;;;;7.17;6.10;;;;;;;4.63;100.00;97187.69;5023062;27;103589;-66
2021/12/08 09:08:39;;;;;;;7.07;5.30;;;;;;;4.63;100.00;97206.81;5003186;28;104105;-66
2021/12/08 09:11:13;;;;;;;7.80;6.70;;;;;;;4.71;100.00;97197.59;5003087;28;103375;-66
2021/12/08 09:13:45;;;;;;;7.13;5.83;;;;;;;4.69;100.00;97205.53;5021733;27;104558;-66
2021/12/08 09:16:16;;;;;;;7.53;6.73;;;;;;;4.66;100.00;97203.13;5002620;27;102743;-68
2021/12/08 09:18:55;;;;;;;8.27;6.77;;;;;;;4.69;100.00;97210.75;5017110;27;103578;-66
2021/12/08 09:21:31;;;;;;;7.07;5.67;;;;;;;4.74;100.00;97208.66;5017564;28;103180;-66
2021/12/08 09:24:05;;;;;;;9.53;6.50;;;;;;;4.70;100.00;97217.66;5021131;27;103056;-66
2021/12/08 09:26:37;;;;;;;6.73;6.07;;;;;;;4.74;100.00;97203.44;5021480;27;102841;-66
2021/12/08 09:29:08;;;;;;;7.47;6.07;;;;;;;4.75;100.00;97210.31;5022474;27;103211;-66
2021/12/08 09:31:39;;;;;;;6.60;5.47;;;;;;;4.72;100.00;97204.47;5021635;27;103207;-66
2021/12/08 09:34:16;;;;;;;8.20;6.27;;;;;;;4.68;100.00;97203.88;5021272;27;102614;-66
2021/12/08 09:36:47;;;;;;;6.70;5.70;;;;;;;4.73;100.00;97207.00;5002413;28;103963;-66
2021/12/08 09:39:21;;;;;;;5.20;4.30;;;;;;;4.78;100.00;97204.88;5021752;27;104417;-66
2021/12/08 09:41:57;;;;;;;6.67;5.87;;;;;;;4.85;100.00;97205.28;5021731;27;103317;-66
2021/12/08 09:44:28;;;;;;;6.90;6.20;;;;;;;4.90;100.00;97213.63;5024892;27;102588;-66
2021/12/08 09:46:59;;;;;;;5.20;4.53;;;;;;;4.96;100.00;97214.00;5004013;27;104496;-66
2021/12/08 09:49:32;;;;;;;5.70;4.50;;;;;;;5.02;100.00;97207.50;5023451;27;103253;-67
2021/12/08 09:52:05;;;;;;;7.73;7.00;;;;;;;4.82;100.00;97201.09;5001442;28;104172;-66
2021/12/08 09:54:33;;;;;;;5.40;4.90;;;;;;;4.89;100.00;97193.63;5021980;27;102945;-66
2021/12/08 09:57:06;;;;;;;8.83;6.60;;;;;;;4.85;100.00;97193.03;5004871;28;102870;-66
2021/12/08 09:59:37;;;;;;;6.80;5.07;;;;;;;4.89;100.00;97191.00;5020725;27;103306;-66
2021/12/08 10:02:08;;;;;;;5.63;5.10;;;;;;;4.88;100.00;97190.19;5021541;27;103204;-66
2021/12/08 10:04:38;;;;;;;7.83;6.30;;;;;;;5.04;100.00;97189.88;5022541;27;102563;-66
2021/12/08 10:07:06;;;;;;;7.57;6.43;;;;;;;5.01;100.00;97185.72;5004486;28;103949;-69
2021/12/08 10:09:35;;;;;;;8.63;7.30;;;;;;;4.95;100.00;97183.53;5019348;27;103236;-69
2021/12/08 10:12:06;;;;;;;8.43;7.40;;;;;;;4.72;100.00;97173.91;5021752;27;103164;-69
2021/12/08 10:14:35;;;;;;;5.70;4.97;;;;;;;4.92;100.00;97175.91;5004301;28;102825;-69
2021/12/08 10:17:03;;;;;;;7.77;6.97;;;;;;;4.93;100.00;97176.75;5022447;27;103774;-69
2021/12/08 10:19:32;;;;;;;7.83;6.87;;;;;;;5.05;100.00;97175.84;5023631;27;103997;-69
2021/12/08 10:22:04;;;;;;;8.93;6.50;;;;;;;5.11;100.00;97170.97;5021886;27;103304;-69
2021/12/08 10:24:33;;;;;;;8.10;6.47;;;;;;;5.06;100.00;97173.13;5020268;27;102631;-66
2021/12/08 10:27:04;;;;;;;8.87;7.10;;;;;;;5.08;100.00;97176.44;5022101;27;102920;-69
2021/12/08 10:29:33;;;;;;;8.50;6.47;;;;;;;5.12;100.00;97183.13;5023213;27;103236;-69
2021/12/08 10:32:04;;;;;;;9.20;7.43;;;;;;;5.07;100.00;97168.72;5021885;27;103192;-67
2021/12/08 10:34:42;;;;;;;9.57;7.43;;;;;;;5.03;100.00;97157.63;5022219;27;102678;-66
2021/12/08 10:37:19;;;;;;;9.93;7.17;;;;;;;5.04;100.00;97163.72;5003597;28;102924;-66
2021/12/08 10:39:52;;;;;;;9.00;8.10;;;;;;;5.05;100.00;97160.97;5020418;27;103293;-69
2021/12/08 10:42:26;;;;;;;7.57;6.80;;;;;;;5.10;100.00;97153.63;5020335;27;103216;-69
2021/12/08 10:45:08;;;;;;;8.73;7.83;;;;;;;5.19;100.00;97154.72;5005230;27;102642;-69
2021/12/08 10:47:39;;;;;;;9.67;8.50;;;;;;;5.11;100.00;97150.03;5022455;27;102749;-69
2021/12/08 10:55:52;;;;;;;8.90;7.47;;;;;;;5.28;100.00;97134.88;5000420;28;102691;-69
2021/12/08 10:58:22;;;;;;;8.47;7.60;;;;;;;5.32;100.00;97134.50;5023152;27;102702;-69
2021/12/08 11:00:51;;;;;;;9.07;7.77;;;;;;;5.32;100.00;97136.28;5003984;28;103149;-69
2021/12/08 11:03:19;;;;;;;10.83;7.53;;;;;;;5.32;100.00;97131.91;5002370;28;103401;-69
2021/12/08 11:05:51;;;;;;;8.03;6.93;;;;;;;5.37;100.00;97121.91;5022393;28;103273;-69
2021/12/08 11:08:27;;;;;;;6.90;5.60;;;;;;;5.47;100.00;97120.28;5022556;27;102580;-69
2021/12/08 11:11:00;;;;;;;7.50;6.80;;;;;;;5.55;100.00;97125.75;5018278;28;104089;-66
2021/12/08 11:13:33;;;;;;;6.30;5.03;;;;;;;5.56;100.00;97124.78;5021741;28;102989;-66
2021/12/08 11:16:10;;;;;;;5.77;4.93;;;;;;;5.63;100.00;97114.66;5021481;27;102595;-66
2021/12/08 11:18:40;;;;;;;7.23;6.13;;;;;;;5.64;100.00;97113.72;5024149;27;103870;-66
2021/12/08 11:21:15;;;;;;;9.47;7.83;;;;;;;5.62;100.00;97107.75;5027449;27;103224;-66
2021/12/08 11:24:10;;;;;;;10.17;7.77;;;;;;;5.51;100.00;97118.22;5001326;27;103231;-66
2021/12/08 11:26:41;;;;;;;12.10;8.37;;;;;;;5.54;100.00;97115.38;5025328;28;102610;-66
2021/12/08 11:29:11;;;;;;;7.53;6.23;;;;;;;5.62;100.00;97107.75;5025827;27;102640;-66
2021/12/08 11:31:42;;;;;;;9.60;7.73;;;;;;;5.62;100.00;97108.59;5001133;28;103204;-66
2021/12/08 11:34:16;;;;;;;10.47;7.90;;;;;;;5.37;100.00;97111.44;5003957;28;103248;-67
2021/12/08 11:36:46;;;;;;;11.50;8.23;;;;;;;5.38;100.00;97104.41;5020690;27;102702;-66
2021/12/08 11:39:17;;;;;;;12.30;8.63;;;;;;;5.14;100.00;97092.22;5003403;28;102997;-66
2021/12/08 11:41:47;;;;;;;10.30;8.37;;;;;;;4.84;100.00;97094.53;5002934;28;103301;-66
2021/12/08 11:44:19;;;;;;;11.00;9.70;;;;;;;5.07;100.00;97088.41;5024559;27;103237;-66
2021/12/08 11:47:03;;;;;;;11.63;10.07;;;;;;;5.04;100.00;97100.91;5022408;27;102579;-66
2021/12/08 11:49:32;;;;;;;9.23;7.33;;;;;;;5.36;100.00;97091.41;4998832;28;102741;-66
2021/12/08 11:52:05;;;;;;;10.03;8.60;;;;;;;5.49;100.00;97093.94;5022889;27;103352;-66
2021/12/08 11:54:39;;;;;;;10.00;8.63;;;;;;;5.28;100.00;97098.22;5024591;27;103118;-66
2021/12/08 11:57:11;;;;;;;8.73;7.83;;;;;;;5.28;100.00;97103.47;5007018;27;103890;-66
2021/12/08 11:59:48;;;;;;;11.00;8.83;;;;;;;5.49;100.00;97101.81;5024451;27;102666;-66
2021/12/08 12:02:21;;;;;;;11.60;9.93;;;;;;;5.46;100.00;97102.88;5023028;27;103260;-66
2021/12/08 12:04:50;;;;;;;10.63;9.53;;;;;;;5.51;100.00;97105.13;5023203;27;103209;-66
2021/12/08 12:07:18;;;;;;;9.23;8.03;;;;;;;5.40;100.00;97102.50;5007492;28;102677;-66
2021/12/08 12:09:49;;;;;;;9.80;8.80;;;;;;;5.28;100.00;97110.34;5003283;28;104037;-66
2021/12/08 12:12:18;;;;;;;9.43;8.27;;;;;;;5.43;100.00;97115.38;5001232;27;103254;-64
2021/12/08 12:14:47;;;;;;;10.37;8.30;;;;;;;5.34;100.00;97108.19;5014512;27;103247;-64
2021/12/08 12:17:15;;;;;;;9.17;8.17;;;;;;;5.37;100.00;97107.97;4997327;28;102695;-64
2021/12/08 12:19:52;;;;;;;9.90;7.73;;;;;;;5.30;100.00;97105.00;4999650;28;102781;-63
2021/12/08 12:22:32;;;;;;;9.93;7.57;;;;;;;5.28;100.00;97105.09;5017486;27;103253;-65
2021/12/08 12:25:26;;;;;;;10.47;8.63;;;;;;;5.22;100.00;97105.56;5014546;27;103442;-64